Nearby METAR Reports

 

KDLS - The Dalles, Oregon, USA
Distance from station: NNE 2mi, 3km
Updated: Sun, 23-Jan-2022 3:53am PST
Overcast
Overcast
 Wind from calm
Wind: Calm
Temperature: 37°F , 3°C
Dew Point: 34°F , 1°C
Humidity: 87%
Barometer: 30.52 inHg , 1033.5 hPa
Clouds: Overcast
Visibility: 7 miles , 11 km
Cloud details: Overcast 500 ft
2022/01/23 11:53 KDLS 231153Z AUTO 00000KT 7SM OVC005 03/01 A3052 RMK AO2 SLP339 T00330006 10039 20028 56009
KTTD - Troutdale, Oregon, USA
Distance from station: W 60mi, 96km
Updated: Sat, 22-Jan-2022 1:53pm PST
NOT Current
Clear
Clear
 Wind from W
Wind: W 9 mph , 15 km/h
Temperature: 46°F , 8°C
Wind Chill: 41°F , 5°C
Dew Point: 37°F , 3°C
Humidity: 71%
Barometer: 30.44 inHg , 1030.8 hPa
Clouds: Clear
Visibility: 10 miles , 16 km
2022/01/22 21:53 KTTD 222153Z 27008KT 10SM CLR 08/03 A3044
 
KPDX - Portland, Oregon, USA
Distance from station: W 69mi, 111km
Updated: Sun, 23-Jan-2022 4:53am PST
Fog, Mostly cloudy
Fog, Mostly cloudy
 Wind from WNW
Wind: WNW 6 mph , 9 km/h
Temperature: 34°F , 1°C
Wind Chill: 29°F , -2°C
Dew Point: 32°F , 0°C
Humidity: 93%
Barometer: 30.38 inHg , 1028.8 hPa
Summary: Fog
Clouds: Mostly cloudy
Visibility: 1/4 mile , 0.4 km
Cloud details: Mostly cloudy 200 ft
2022/01/23 12:53 KPDX 231253Z 30005KT 1/4SM R10R/1400V1600FT FG BKN002 01/00 A3038 RMK AO2 SLP287 T00110000 $
KVUO - Vancouver, Washington, USA
Distance from station: W 71mi, 114km
Updated: Sun, 23-Jan-2022 4:53am PST
Fog, Overcast
Fog, Overcast
 Wind from calm
Wind: Calm
Temperature: 34°F , 1°C
Dew Point: 32°F , 0°C
Humidity: 93%
Barometer: 30.38 inHg , 1028.8 hPa
Summary: Fog
Clouds: Overcast
Visibility: 1/2 mile , 0.8 km
Cloud details: Overcast 200 ft
2022/01/23 12:53 KVUO 231253Z AUTO 00000KT 1/2SM FG VV002 01/00 A3038 RMK AO2 SLP289 I1000 T00060000 $
 
KYKM - Yakima, Washington, USA
Distance from station: NNE 74mi, 120km
Updated: Sun, 23-Jan-2022 4:53am PST
Freezing fog, Overcast
Freezing fog, Overcast
 Wind from W
Wind: W 6 mph , 9 km/h
Temperature: 19°F , -7°C
Wind Chill: 11°F , -12°C
Dew Point: 16°F , -9°C
Humidity: 86%
Barometer: 30.48 inHg , 1032.2 hPa
Summary: Freezing Fog
Clouds: Overcast
Visibility: 1/2 mile , 0.8 km
Cloud details: Overcast 200 ft
2022/01/23 12:53 KYKM 231253Z AUTO 26005KT 1/2SM R27/1800V2000FT FZFG VV002 M07/M09 A3048 RMK AO2 SLP338 I1000 T10721089
KUAO - Aurora, Oregon, USA
Distance from station: WSW 80mi, 129km
Updated: Sun, 23-Jan-2022 4:53am PST
Clear
Clear
 Wind from E
Wind: E 3 mph , 6 km/h
Temperature: 32°F , 0°C
Dew Point: 30°F , -1°C
Humidity: 93%
Barometer: 30.36 inHg , 1028.1 hPa
Clouds: Clear
Visibility: 9 miles , 14 km
2022/01/23 12:53 KUAO 231253Z AUTO 10003KT 9SM CLR 00/M01 A3036 RMK AO2 SLP282 I1001 T00001011
 
KSPB - Scappoose, Oregon, USA
Distance from station: W 82mi, 132km
Updated: Sun, 23-Jan-2022 4:53am PST
Fog, Overcast
Fog, Overcast
 Wind from calm
Wind: Calm
Temperature: 34°F , 1°C
Dew Point: 32°F , 0°C
Humidity: 93%
Barometer: 30.38 inHg , 1028.8 hPa
Summary: Fog
Clouds: Overcast
Visibility: 1/4 mile , 0.4 km
Cloud details: Overcast 200 ft
2022/01/23 12:53 KSPB 231253Z AUTO 00000KT 1/4SM FG VV002 01/00 A3038 RMK AO2 SLP286 I1000 T00060000
KHIO - Hillsboro/Portld, Oregon, USA
Distance from station: W 85mi, 137km
Updated: Sun, 23-Jan-2022 4:53am PST
Mist, Partly cloudy
Mist, Partly cloudy
 Wind from NW
Wind: NW 3 mph , 6 km/h
Temperature: 28°F , -2°C
Dew Point: 27°F , -3°C
Humidity: 93%
Barometer: 30.36 inHg , 1028.1 hPa
Summary: Mist
Clouds: Partly cloudy
Visibility: 1 3/4 miles , 2.8 km
Cloud details: Partly cloudy 100 ft
2022/01/23 12:53 KHIO 231253Z AUTO 31003KT 1 3/4SM BR SCT001 M02/M03 A3036 RMK AO2 SLP282 I1000 T10221028
 
KKLS - Kelso Longveiw, Washington, USA
Distance from station: WNW 90mi, 145km
Updated: Sun, 23-Jan-2022 4:56am PST
Overcast
Overcast
 Wind from varies
Wind: varies 3 mph , 6 km/h
Temperature: 34°F , 1°C
Dew Point: 34°F , 1°C
Humidity: 100%
Barometer: 30.41 inHg , 1029.8 hPa
Clouds: Overcast
Visibility: 10 miles , 16 km
Cloud details: Overcast 400 ft
2022/01/23 12:56 KKLS 231256Z AUTO VRB03KT 10SM OVC004 01/01 A3041 RMK AO2 SLP302 T00110006 FZRANO
KRDM - Redmond, Oregon, USA
Distance from station: S 93mi, 149km
Updated: Sun, 23-Jan-2022 4:56am PST
Clear
Clear
 Wind from calm
Wind: Calm
Temperature: 19°F , -7°C
Dew Point: 14°F , -10°C
Humidity: 79%
Barometer: 30.40 inHg , 1029.5 hPa
Clouds: Clear
Visibility: 10 miles , 16 km
2022/01/23 12:56 KRDM 231256Z AUTO 00000KT 10SM CLR M07/M10 A3040 RMK AO2 SLP317 T10721100 PNO $
 
KHRI - Hermiston, Oregon, USA
Distance from station: E 94mi, 151km
Updated: Sun, 23-Jan-2022 4:53am PST
Freezing fog, Overcast
Freezing fog, Overcast
 Wind from calm
Wind: Calm
Temperature: 30°F , -1°C
Dew Point: 30°F , -1°C
Humidity: 100%
Barometer: 30.51 inHg , 1033.2 hPa
Summary: Freezing Fog
Clouds: Overcast
Visibility: 1/2 mile , 0.8 km
Cloud details: Overcast 200 ft
2022/01/23 12:53 KHRI 231253Z AUTO 00000KT 1/2SM FZFG VV002 M01/M01 A3051 RMK AO2 SLP336 T10111011
KMMV - Mcminnville, Oregon, USA
Distance from station: WSW 98mi, 158km
Updated: Sun, 23-Jan-2022 4:53am PST
Freezing fog, Clear
Freezing fog, Clear
 Wind from calm
Wind: Calm
Temperature: 30°F , -1°C
Dew Point: 28°F , -2°C
Humidity: 93%
Barometer: 30.35 inHg , 1027.8 hPa
Summary: Freezing Fog
Clouds: Clear
Visibility: 1/2 mile , 0.8 km
2022/01/23 12:53 KMMV 231253Z AUTO 00000KT 1/2SM FZFG CLR M01/M02 A3035 RMK AO2 SLP279 I1000 T10111022
 
KSLE - Salem, Oregon, USA
Distance from station: WSW 100mi, 161km
Updated: Sun, 23-Jan-2022 4:56am PST
Clear
Clear
 Wind from SSE
Wind: SSE 3 mph , 6 km/h
Temperature: 28°F , -2°C
Dew Point: 27°F , -3°C
Humidity: 93%
Barometer: 30.35 inHg , 1027.8 hPa
Clouds: Clear
Visibility: 7 miles , 11 km
2022/01/23 12:56 KSLE 231256Z AUTO 16003KT 7SM CLR M02/M03 A3035 RMK AO2 SLP279 I1000 T10221033
KBDN - Bend, Oregon, USA
Distance from station: S 103mi, 166km
Updated: Sun, 23-Jan-2022 4:55am PST
Clear
Clear
 Wind from SE
Wind: SE 7 mph , 11 km/h
Temperature: 23°F , -5°C
Wind Chill: 15°F , -9°C
Dew Point: 14°F , -10°C
Humidity: 68%
Barometer: 30.42 inHg , 1030.1 hPa
Clouds: Clear
Visibility: 10 miles , 16 km
2022/01/23 12:55 KBDN 231255Z AUTO 14006KT 10SM CLR M05/M10 A3042 RMK AO2
 
KELN - Ellensburg, Washington, USA
Distance from station: NNE 104mi, 168km
Updated: Sun, 23-Jan-2022 4:53am PST
Haze, Overcast
Haze, Overcast
 Wind from ESE
Wind: ESE 3 mph , 6 km/h
Temperature: 16°F , -9°C
Dew Point: 10°F , -12°C
Humidity: 79%
Barometer: 30.44 inHg , 1030.8 hPa
Summary: Haze
Clouds: Overcast
Visibility: 1/4 mile , 0.4 km
Cloud details: Overcast 300 ft
2022/01/23 12:53 KELN 231253Z AUTO 11003KT 1/4SM HZ VV003 M09/M12 A3044 RMK AO2 SLP333 I1000 T10941122
KPSC - Pasco, Washington, USA
Distance from station: ENE 110mi, 177km
Updated: Sun, 23-Jan-2022 4:53am PST
Mist, Overcast
Mist, Overcast
 Wind from calm
Wind: Calm
Temperature: 30°F , -1°C
Dew Point: 30°F , -1°C
Humidity: 100%
Barometer: 30.53 inHg , 1033.9 hPa
Summary: Mist
Clouds: Overcast
Visibility: 5 miles , 8 km
Cloud details: Overcast 300 ft
2022/01/23 12:53 KPSC 231253Z AUTO 00000KT 5SM BR OVC003 M01/M01 A3053 RMK AO2 SLP343 T10061011
 
KPDT - Pendleton, Oregon, USA
Distance from station: E 114mi, 183km
Updated: Sun, 23-Jan-2022 4:53am PST
Freezing fog, Overcast
Freezing fog, Overcast
 Wind from SE
Wind: SE 7 mph , 11 km/h
Temperature: 28°F , -2°C
Wind Chill: 21°F , -6°C
Dew Point: 27°F , -3°C
Humidity: 93%
Barometer: 30.44 inHg , 1030.8 hPa
Summary: Freezing Fog
Clouds: Overcast
Visibility: 1/4 mile , 0.4 km
Cloud details: Overcast 100 ft
2022/01/23 12:53 KPDT 231253Z AUTO 14006KT 1/4SM R26/1000FT FZFG VV001 M02/M03 A3044 RMK AO2 SLP318 I1001 T10171033 $
KCLS - Chehalis Central, Washington, USA
Distance from station: NW 115mi, 184km
Updated: Sun, 23-Jan-2022 4:55am PST
Mist, Overcast
Mist, Overcast
 Wind from N
Wind: N 3 mph , 6 km/h
Temperature: 37°F , 3°C
Dew Point: 37°F , 3°C
Humidity: 100%
Barometer: 30.42 inHg , 1030.1 hPa
Summary: Mist
Clouds: Overcast
Visibility: 2 1/2 miles , 4 km
Cloud details: Overcast 500 ft
2022/01/23 12:55 KCLS 231255Z AUTO 36003KT 2 1/2SM BR OVC005 03/03 A3042 RMK AO2
 
KPLU - Puyallup/Thun, Washington, USA
Distance from station: NNW 117mi, 188km
Updated: Sun, 23-Jan-2022 4:55am PST
Fog, Overcast
Fog, Overcast
 Wind from calm
Wind: Calm
Temperature: 34°F , 1°C
Dew Point: 34°F , 1°C
Humidity: 100%
Barometer: 30.42 inHg , 1030.1 hPa
Summary: Fog
Clouds: Overcast
Visibility: less than 1/4 mile , 0.4 km
Cloud details: Overcast 200 ft
2022/01/23 12:55 KPLU 231255Z AUTO 00000KT M1/4SM FG OVC002 01/01 A3042 RMK AO2
KCVO - Corvallis Muni A, Oregon, USA
Distance from station: WNW 167mi, 269km
Updated: Sun, 23-Jan-2022 4:56am PST
Freezing fog, Overcast
Freezing fog, Overcast
 Wind from calm
Wind: Calm
Temperature: 28°F , -2°C
Dew Point: 28°F , -2°C
Humidity: 100%
Barometer: 30.37 inHg , 1028.4 hPa
Summary: Freezing Fog
Clouds: Overcast
Visibility: 1/4 mile , 0.4 km
Cloud details: Overcast 200 ft
2022/01/23 12:56 KCVO 231256Z AUTO 00000KT 1/4SM FZFG OVC002 M02/M02 A3037 RMK AO2 SLP288 T10171022 FZRANO RVRNO
 
KEUG - Eugene, Oregon, USA
Distance from station: W 193mi, 310km
Updated: Sun, 23-Jan-2022 4:54am PST
Fog, Overcast
Fog, Overcast
 Wind from calm
Wind: Calm
Temperature: 34°F , 1°C
Dew Point: 34°F , 1°C
Humidity: 100%
Barometer: 30.37 inHg , 1028.4 hPa
Summary: Fog
Clouds: Overcast
Visibility: 1/4 mile , 0.4 km
Cloud details: Overcast 100 ft
2022/01/23 12:54 KEUG 231254Z AUTO 00000KT 1/4SM R16R/1400V1600FT FG VV001 01/01 A3037 RMK AO2 SLP286 T00110011 TSNO
KRBG - Roseburg, Oregon, USA
Distance from station: WSW 196mi, 315km
Updated: Sun, 23-Jan-2022 4:53am PST
Mist, Overcast
Mist, Overcast
 Wind from ENE
Wind: ENE 3 mph , 6 km/h
Temperature: 36°F , 2°C
Dew Point: 36°F , 2°C
Humidity: 100%
Barometer: 30.35 inHg , 1027.8 hPa
Summary: Mist
Clouds: Overcast
Visibility: 3/4 mile , 1.2 km
Cloud details: Overcast 200 ft
2022/01/23 12:53 KRBG 231253Z AUTO 06003KT 3/4SM BR VV002 02/02 A3035 RMK AO2 SLP280 T00220022
 
KLKV - Lakeview, Oregon, USA
Distance from station: SSE 239mi, 385km
Updated: Sun, 23-Jan-2022 4:53am PST
Clear
Clear
 Wind from NNW
Wind: NNW 8 mph , 13 km/h
Temperature: 30°F , -1°C
Wind Chill: 22°F , -6°C
Dew Point: 19°F , -7°C
Humidity: 64%
Barometer: 30.38 inHg , 1028.8 hPa
Clouds: Clear
Visibility: 10 miles , 16 km
2022/01/23 12:53 KLKV 231253Z AUTO 33007KT 10SM CLR M01/M07 A3038 RMK AO2 SLP310 T10061072 FZRANO
KMFR - Medford, Oregon, USA
Distance from station: WSW 241mi, 388km
Updated: Sun, 23-Jan-2022 4:53am PST
Clear
Clear
 Wind from SE
Wind: SE 3 mph , 6 km/h
Temperature: 27°F , -3°C
Dew Point: 25°F , -4°C
Humidity: 93%
Barometer: 30.34 inHg , 1027.4 hPa
Clouds: Clear
Visibility: 8 miles , 13 km
2022/01/23 12:53 KMFR 231253Z AUTO 13003KT 8SM CLR M03/M04 A3034 RMK AO2 SLP280 T10281039 $
 
KBNO - Burns, Oregon, USA
Distance from station: ESE 249mi, 280km
Updated: Sun, 23-Jan-2022 4:53am PST
Clear
Clear
 Wind from NW
Wind: NW 6 mph , 9 km/h
Temperature: 21°F , -6°C
Wind Chill: 13°F , -11°C
Dew Point: 18°F , -8°C
Humidity: 86%
Barometer: 30.45 inHg , 1031.2 hPa
Clouds: Clear
Visibility: 10 miles , 16 km
2022/01/23 12:53 KBNO 231253Z AUTO 31005KT 10SM CLR M06/M08 A3045 RMK AO2 SLP340 T10561083
KLMT - Klamath Falls, Oregon, USA
Distance from station: SSW 266mi, 428km
Updated: Sun, 23-Jan-2022 4:53am PST
Clear
Clear
 Wind from calm
Wind: Calm
Temperature: 25°F , -4°C
Dew Point: 18°F , -8°C
Humidity: 74%
Barometer: 30.39 inHg , 1029.1 hPa
Clouds: Clear
Visibility: 10 miles , 16 km
2022/01/23 12:53 KLMT 231253Z AUTO 00000KT 10SM CLR M04/M08 A3039 RMK AO2 SLP300 T10391083